Time;durP1;ratioP1;P1;durP2;ratioP2;P2;SDS_P1;SDS_P2;PMS_P1;PMS_P2;Temp;Humidity;BMP_temperature;BMP_pressure;BME280_temperature;BME280_humidity;BME280_pressure;Samples;Min_cycle;Max_cycle;Signal;HPM_P1;HPM_P2
2023/04/04 00:02:19;;;;;;;8.23;3.58;;;;;;;2.89;100.00;103215.16;4930940;28;20073;-77
2023/04/04 00:04:46;;;;;;;5.22;3.33;;;;;;;2.84;100.00;103212.22;4944677;28;20122;-77
2023/04/04 00:07:14;;;;;;;8.77;3.92;;;;;;;2.82;100.00;103210.31;4969547;28;20066;-77
2023/04/04 00:09:41;;;;;;;6.13;3.25;;;;;;;2.79;100.00;103215.31;4986848;28;20094;-77
2023/04/04 00:12:10;;;;;;;9.73;3.60;;;;;;;2.75;100.00;103211.56;4937191;28;20502;-77
2023/04/04 00:14:38;;;;;;;4.65;3.20;;;;;;;2.73;100.00;103216.66;4938120;28;20070;-77
2023/04/04 00:17:05;;;;;;;4.78;2.90;;;;;;;2.69;100.00;103209.41;4924504;28;20047;-77
2023/04/04 00:19:33;;;;;;;4.68;3.03;;;;;;;2.67;100.00;103208.41;4959446;28;20057;-77
2023/04/04 00:22:00;;;;;;;5.65;2.83;;;;;;;2.62;100.00;103201.94;4950635;28;20043;-77
2023/04/04 00:24:28;;;;;;;6.18;3.28;;;;;;;2.58;100.00;103197.31;4937623;28;20050;-77
2023/04/04 00:26:55;;;;;;;5.50;2.65;;;;;;;2.54;100.00;103195.28;4984300;28;20055;-76
2023/04/04 00:29:24;;;;;;;5.68;2.97;;;;;;;2.49;100.00;103196.63;4971469;28;20059;-77
2023/04/04 00:31:52;;;;;;;4.93;2.95;;;;;;;2.46;100.00;103193.81;4935465;28;20493;-76
2023/04/04 00:34:19;;;;;;;4.95;2.70;;;;;;;2.42;100.00;103195.28;4928940;28;20066;-77
2023/04/04 00:36:48;;;;;;;2.90;2.40;;;;;;;2.37;100.00;103187.94;4961643;28;20055;-78
2023/04/04 00:39:16;;;;;;;4.32;2.90;;;;;;;2.33;100.00;103194.59;4963905;28;20058;-78
2023/04/04 00:41:43;;;;;;;3.08;2.38;;;;;;;2.30;100.00;103186.56;4950869;28;20046;-77
2023/04/04 00:44:11;;;;;;;4.03;2.45;;;;;;;2.25;100.00;103190.50;4963860;28;20038;-77
2023/04/04 00:46:39;;;;;;;3.05;2.50;;;;;;;2.23;100.00;103185.22;4970499;28;20506;-77
2023/04/04 00:49:06;;;;;;;4.00;2.47;;;;;;;2.19;100.00;103184.84;4914536;28;20065;-77
2023/04/04 00:51:35;;;;;;;4.50;2.13;;;;;;;2.14;100.00;103190.63;4962967;28;20405;-77
2023/04/04 00:54:02;;;;;;;3.17;2.72;;;;;;;2.12;100.00;103186.09;4963962;28;20113;-77
2023/04/04 00:56:31;;;;;;;4.25;2.10;;;;;;;2.09;100.00;103188.47;4951478;28;20059;-77
2023/04/04 00:58:59;;;;;;;3.45;2.05;;;;;;;2.08;100.00;103186.63;4966600;28;20062;-77
2023/04/04 01:01:27;;;;;;;3.75;2.53;;;;;;;2.04;100.00;103180.34;4986990;28;20042;-77
2023/04/04 01:03:54;;;;;;;3.47;2.42;;;;;;;2.03;100.00;103188.00;4925051;28;20067;-77
2023/04/04 01:06:22;;;;;;;3.80;2.58;;;;;;;2.00;100.00;103191.25;4973569;28;20050;-77
2023/04/04 01:08:51;;;;;;;7.70;2.67;;;;;;;1.96;100.00;103184.03;4934391;28;20055;-77
2023/04/04 01:11:18;;;;;;;4.90;2.40;;;;;;;1.94;100.00;103181.31;4971042;28;20410;-77
2023/04/04 01:13:47;;;;;;;3.03;2.40;;;;;;;1.90;100.00;103189.66;4967148;28;20054;-78
2023/04/04 01:16:16;;;;;;;3.10;2.35;;;;;;;1.90;100.00;103183.56;4969960;28;20058;-77
2023/04/04 01:18:45;;;;;;;3.05;2.40;;;;;;;1.87;100.00;103180.72;4904392;28;20398;-78
2023/04/04 01:21:16;;;;;;;2.67;2.20;;;;;;;1.83;100.00;103189.09;4950406;28;20048;-77
2023/04/04 01:24:00;;;;;;;4.03;2.67;;;;;;;1.80;100.00;103194.97;4960477;28;20055;-77
2023/04/04 01:26:36;;;;;;;8.18;2.67;;;;;;;1.78;100.00;103193.94;4939816;28;20126;-76
2023/04/04 01:29:04;;;;;;;2.63;1.85;;;;;;;1.75;100.00;103196.31;4937605;28;20832;-76
2023/04/04 01:31:41;;;;;;;2.45;2.25;;;;;;;1.72;100.00;103194.38;4952744;28;20058;-78
2023/04/04 01:34:41;;;;;;;4.40;2.30;;;;;;;1.69;100.00;103188.03;4929680;28;20517;-76
2023/04/04 01:37:41;;;;;;;2.42;1.95;;;;;;;1.67;100.00;103182.72;4970025;28;20054;-78
2023/04/04 01:40:33;;;;;;;7.20;3.00;;;;;;;1.63;100.00;103184.97;4973330;28;20055;-78
2023/04/04 01:43:02;;;;;;;9.10;2.40;;;;;;;1.61;100.00;103176.13;4963520;28;20044;-77
2023/04/04 01:45:34;;;;;;;2.88;2.67;;;;;;;1.61;100.00;103176.13;4933067;29;20054;-78
2023/04/04 01:48:07;;;;;;;3.90;2.47;;;;;;;1.59;100.00;103163.03;4968008;28;20050;-77
2023/04/04 01:50:35;;;;;;;8.48;3.05;;;;;;;1.58;100.00;103166.41;4911444;28;20737;-78
2023/04/04 01:53:03;;;;;;;4.35;2.60;;;;;;;1.55;100.00;103163.56;4950493;28;20047;-77
2023/04/04 01:55:31;;;;;;;3.65;2.50;;;;;;;1.53;100.00;103163.47;4965636;28;20055;-77
2023/04/04 01:57:59;;;;;;;3.33;2.67;;;;;;;1.51;100.00;103158.91;4918260;28;20807;-77
2023/04/04 02:00:26;;;;;;;5.72;3.40;;;;;;;1.47;100.00;103162.06;4923667;28;20051;-78
2023/04/04 02:02:54;;;;;;;3.95;3.20;;;;;;;1.45;100.00;103164.56;4948012;28;20058;-77
2023/04/04 02:05:22;;;;;;;4.97;3.13;;;;;;;1.42;100.00;103158.22;4969859;28;20043;-77
2023/04/04 02:07:50;;;;;;;4.97;3.15;;;;;;;1.41;100.00;103159.91;4935881;28;20065;-77
2023/04/04 02:10:31;;;;;;;4.60;2.80;;;;;;;1.40;100.00;103162.38;4943076;28;20047;-77
2023/04/04 02:12:59;;;;;;;3.60;2.25;;;;;;;1.37;100.00;103155.25;4937377;28;20057;-78
2023/04/04 02:15:26;;;;;;;3.33;2.28;;;;;;;1.33;100.00;103154.13;4928343;28;20047;-78
2023/04/04 02:17:54;;;;;;;6.20;3.00;;;;;;;1.28;100.00;103158.03;4947496;28;20051;-78
2023/04/04 02:20:21;;;;;;;5.50;2.67;;;;;;;1.25;100.00;103151.69;4955636;28;20050;-78
2023/04/04 02:22:51;;;;;;;7.70;2.80;;;;;;;1.22;100.00;103152.38;4904674;28;20950;-78
2023/04/04 02:25:19;;;;;;;3.15;2.53;;;;;;;1.20;100.00;103150.47;4958480;28;20088;-78
2023/04/04 02:27:47;;;;;;;4.60;2.72;;;;;;;1.17;100.00;103159.81;4949045;28;20058;-78
2023/04/04 02:30:15;;;;;;;3.92;3.00;;;;;;;1.14;100.00;103156.97;4986796;28;20059;-78
2023/04/04 02:32:43;;;;;;;4.30;2.40;;;;;;;1.10;100.00;103160.13;4955697;28;20043;-78
2023/04/04 02:35:16;;;;;;;6.53;2.90;;;;;;;1.07;100.00;103164.16;4938529;28;20089;-78
2023/04/04 02:37:47;;;;;;;3.95;2.80;;;;;;;1.04;100.00;103157.06;4918620;28;20051;-78
2023/04/04 02:40:29;;;;;;;4.97;2.78;;;;;;;0.99;100.00;103153.19;4974384;28;20517;-78
2023/04/04 02:42:57;;;;;;;3.05;2.83;;;;;;;0.97;100.00;103159.94;4950635;28;20059;-78
2023/04/04 02:45:25;;;;;;;5.15;2.95;;;;;;;0.95;100.00;103164.09;4956799;28;20055;-78
2023/04/04 02:48:02;;;;;;;4.80;2.90;;;;;;;0.91;100.00;103162.97;4957899;28;20788;-78
2023/04/04 02:50:38;;;;;;;5.63;2.70;;;;;;;0.89;100.00;103169.72;4941654;28;20050;-78
2023/04/04 02:53:08;;;;;;;5.03;2.37;;;;;;;0.85;100.00;103157.28;4942099;28;20062;-78
2023/04/04 02:55:36;;;;;;;5.15;2.35;;;;;;;0.82;100.00;103150.94;4921501;28;20050;-78
2023/04/04 02:58:03;;;;;;;4.75;2.58;;;;;;;0.79;100.00;103151.56;4974040;28;20062;-78
2023/04/04 03:00:31;;;;;;;3.35;2.65;;;;;;;0.75;100.00;103150.41;4954812;29;20039;-78
2023/04/04 03:02:58;;;;;;;4.13;2.10;;;;;;;0.72;100.00;103155.38;4949892;29;20047;-79
2023/04/04 03:05:36;;;;;;;6.95;2.50;;;;;;;0.70;100.00;103143.06;4977583;28;20110;-78
2023/04/04 03:08:04;;;;;;;5.88;2.67;;;;;;;0.67;100.00;103148.03;4987136;28;20043;-78
2023/04/04 03:10:31;;;;;;;4.15;2.67;;;;;;;0.65;100.00;103139.22;4918028;28;20513;-78
2023/04/04 03:12:58;;;;;;;5.25;2.80;;;;;;;0.62;100.00;103142.44;4967549;28;20058;-78
2023/04/04 03:15:29;;;;;;;2.50;2.30;;;;;;;0.61;100.00;103140.66;4964755;28;20047;-78
2023/04/04 03:17:57;;;;;;;3.65;2.78;;;;;;;0.60;100.00;103140.50;4954555;28;20848;-78
2023/04/04 03:20:27;;;;;;;2.55;2.33;;;;;;;0.58;100.00;103125.72;4956762;28;20051;-77
2023/04/04 03:22:54;;;;;;;3.75;2.10;;;;;;;0.58;100.00;103130.00;4948743;28;20057;-78
2023/04/04 03:25:22;;;;;;;6.13;2.25;;;;;;;0.56;100.00;103136.75;4935728;28;20054;-78
2023/04/04 03:27:49;;;;;;;4.30;2.60;;;;;;;0.54;100.00;103139.22;4937660;29;20039;-78
2023/04/04 03:30:22;;;;;;;4.65;3.00;;;;;;;0.55;100.00;103129.78;4984254;28;20054;-78
2023/04/04 03:32:50;;;;;;;5.70;2.80;;;;;;;0.52;100.00;103130.41;4971122;28;20046;-78
2023/04/04 03:35:17;;;;;;;7.43;3.20;;;;;;;0.51;100.00;103135.47;4973839;28;20051;-78
2023/04/04 03:37:44;;;;;;;7.10;2.97;;;;;;;0.47;100.00;103138.63;4964713;28;20050;-78
2023/04/04 03:40:13;;;;;;;3.97;2.63;;;;;;;0.44;100.00;103136.69;4927929;28;20058;-77
2023/04/04 03:42:42;;;;;;;2.93;2.50;;;;;;;0.42;100.00;103137.31;4967214;28;20043;-77
2023/04/04 03:45:12;;;;;;;5.72;2.75;;;;;;;0.38;100.00;103142.28;4948504;28;20309;-78
2023/04/04 03:47:42;;;;;;;4.30;2.90;;;;;;;0.36;100.00;103129.97;4961581;28;20395;-77
2023/04/04 03:50:10;;;;;;;6.13;2.92;;;;;;;0.33;100.00;103140.09;4945733;28;20070;-78
2023/04/04 03:52:44;;;;;;;3.65;2.53;;;;;;;0.29;100.00;103141.53;4955934;28;20082;-78
2023/04/04 03:55:12;;;;;;;5.45;2.67;;;;;;;0.27;100.00;103137.91;4935916;28;20054;-78
2023/04/04 03:57:40;;;;;;;2.67;2.47;;;;;;;0.24;100.00;103134.16;4964246;28;20054;-78
2023/04/04 04:00:10;;;;;;;4.23;3.00;;;;;;;0.21;100.00;103139.06;4943803;28;20055;-78
2023/04/04 04:02:38;;;;;;;7.22;3.42;;;;;;;0.19;100.00;103139.88;4948239;28;20835;-78
2023/04/04 04:05:08;;;;;;;5.70;3.03;;;;;;;0.15;100.00;103131.69;4947889;28;20054;-77
2023/04/04 04:07:35;;;;;;;3.53;2.83;;;;;;;0.12;100.00;103131.47;4943412;28;20066;-78
2023/04/04 04:10:04;;;;;;;3.92;3.03;;;;;;;0.10;100.00;103127.84;4925695;28;20454;-76
2023/04/04 04:12:32;;;;;;;4.78;2.90;;;;;;;0.06;100.00;103125.75;4935230;28;20046;-78
2023/04/04 04:15:00;;;;;;;5.22;2.90;;;;;;;0.01;100.00;103127.09;4969763;28;20066;-78
2023/04/04 04:17:31;;;;;;;7.03;3.17;;;;;;;-0.03;100.00;103125.94;4970387;28;20073;-79
2023/04/04 04:19:59;;;;;;;7.70;3.17;;;;;;;-0.05;100.00;103128.38;4936165;28;20560;-77
2023/04/04 04:22:36;;;;;;;5.20;3.38;;;;;;;-0.06;100.00;103129.19;4940816;28;20059;-77
2023/04/04 04:25:04;;;;;;;5.28;3.13;;;;;;;-0.08;100.00;103141.06;4931292;28;20494;-76
2023/04/04 04:27:32;;;;;;;5.95;2.95;;;;;;;-0.12;100.00;103138.13;4923011;28;20047;-77
2023/04/04 04:30:00;;;;;;;5.80;2.85;;;;;;;-0.13;100.00;103138.88;4936873;28;20047;-77
2023/04/04 04:32:33;;;;;;;4.60;3.15;;;;;;;-0.15;100.00;103138.78;4965685;28;20050;-77
2023/04/04 04:35:01;;;;;;;6.68;2.80;;;;;;;-0.17;100.00;103137.75;4949392;28;20051;-77
2023/04/04 04:37:34;;;;;;;3.10;2.75;;;;;;;-0.17;100.00;103132.56;4966403;28;20050;-77
2023/04/04 04:40:03;;;;;;;6.53;3.10;;;;;;;-0.19;100.00;103131.50;4939180;28;20085;-77
2023/04/04 04:42:44;;;;;;;3.90;2.80;;;;;;;-0.20;100.00;103133.19;4958038;28;20043;-78
2023/04/04 04:45:16;;;;;;;2.97;2.47;;;;;;;-0.21;100.00;103143.44;4964312;28;20053;-77
2023/04/04 04:47:49;;;;;;;3.10;2.80;;;;;;;-0.24;100.00;103149.28;4965741;28;20510;-77
2023/04/04 04:50:18;;;;;;;3.50;2.85;;;;;;;-0.25;100.00;103143.94;4963675;28;20070;-79
2023/04/04 04:52:51;;;;;;;4.47;2.67;;;;;;;-0.26;100.00;103152.53;4951971;28;20054;-77
2023/04/04 04:55:19;;;;;;;4.72;2.72;;;;;;;-0.25;100.00;103149.13;4879926;28;20796;-77
2023/04/04 04:57:58;;;;;;;5.03;2.80;;;;;;;-0.25;100.00;103154.31;4959587;28;20070;-77
2023/04/04 05:00:27;;;;;;;4.15;2.83;;;;;;;-0.25;100.00;103154.31;4930223;28;20846;-78
2023/04/04 05:02:55;;;;;;;3.55;2.83;;;;;;;-0.25;100.00;103160.41;4947676;28;20051;-79
2023/04/04 05:05:33;;;;;;;4.70;3.30;;;;;;;-0.24;100.00;103140.59;4950098;28;20051;-77
2023/04/04 05:08:04;;;;;;;4.35;2.90;;;;;;;-0.24;100.00;103151.84;4966125;28;20078;-77
2023/04/04 05:10:36;;;;;;;7.40;3.08;;;;;;;-0.20;100.00;103153.03;4870949;28;20065;-77
2023/04/04 05:13:05;;;;;;;4.07;3.00;;;;;;;-0.18;100.00;103151.47;4947738;28;20058;-78
2023/04/04 05:15:40;;;;;;;6.25;2.92;;;;;;;-0.14;100.00;103163.91;4965167;28;20054;-77
2023/04/04 05:18:08;;;;;;;3.75;2.60;;;;;;;-0.11;100.00;103155.50;4934224;28;20050;-76
2023/04/04 05:20:36;;;;;;;5.10;3.33;;;;;;;-0.10;100.00;103155.59;4966563;28;20066;-77
2023/04/04 05:23:06;;;;;;;5.18;2.70;;;;;;;-0.07;100.00;103158.47;4950822;28;20120;-77
2023/04/04 05:25:38;;;;;;;7.60;3.38;;;;;;;-0.05;100.00;103159.50;4967814;28;20051;-78
2023/04/04 05:28:07;;;;;;;9.70;3.10;;;;;;;-0.04;100.00;103156.13;4930545;28;20054;-78
2023/04/04 05:30:37;;;;;;;7.00;3.47;;;;;;;-0.01;100.00;103155.47;4968834;28;20058;-77
2023/04/04 05:33:14;;;;;;;6.03;3.25;;;;;;;0.03;100.00;103161.81;4957574;28;20051;-78
2023/04/04 05:35:47;;;;;;;6.97;3.22;;;;;;;0.08;100.00;103163.13;4948598;28;20050;-78
2023/04/04 05:38:17;;;;;;;5.70;2.83;;;;;;;0.10;100.00;103165.03;4941240;28;20064;-78
2023/04/04 05:40:47;;;;;;;7.47;3.20;;;;;;;0.14;100.00;103158.44;4967326;28;20042;-79
2023/04/04 05:43:15;;;;;;;4.05;3.05;;;;;;;0.17;100.00;103151.81;4916764;28;20034;-77
2023/04/04 05:45:56;;;;;;;4.57;3.40;;;;;;;0.22;100.00;103165.16;4965827;28;20073;-76
2023/04/04 05:48:24;;;;;;;5.57;3.13;;;;;;;0.27;100.00;103170.72;4937706;28;20257;-78
2023/04/04 05:50:53;;;;;;;9.18;3.80;;;;;;;0.31;100.00;103171.09;4951289;28;20051;-78
2023/04/04 05:53:31;;;;;;;6.25;2.97;;;;;;;0.35;100.00;103172.25;4937504;28;20055;-78
2023/04/04 05:56:00;;;;;;;4.68;3.80;;;;;;;0.38;100.00;103170.81;4968511;28;20059;-78
2023/04/04 05:58:30;;;;;;;4.53;3.63;;;;;;;0.42;100.00;103166.78;4894017;29;20055;-78
2023/04/04 06:01:00;;;;;;;5.97;3.70;;;;;;;0.46;100.00;103160.16;4966756;28;20050;-78
2023/04/04 06:03:28;;;;;;;5.88;3.33;;;;;;;0.49;100.00;103166.50;4921872;28;20043;-78
2023/04/04 06:05:58;;;;;;;6.13;3.72;;;;;;;0.52;100.00;103166.75;4950645;28;20065;-78
2023/04/04 06:08:25;;;;;;;4.90;3.70;;;;;;;0.56;100.00;103168.78;4964357;28;20054;-78
2023/04/04 06:10:54;;;;;;;6.53;3.45;;;;;;;0.62;100.00;103167.50;4954002;28;20035;-77
2023/04/04 06:13:22;;;;;;;9.65;3.67;;;;;;;0.69;100.00;103160.31;4884654;28;20066;-77
2023/04/04 06:15:55;;;;;;;9.73;4.68;;;;;;;0.77;100.00;103164.44;4968600;28;20063;-78
2023/04/04 06:18:22;;;;;;;8.27;4.13;;;;;;;0.85;100.00;103157.28;4974031;28;20047;-78
2023/04/04 06:20:50;;;;;;;20.05;6.20;;;;;;;0.94;100.00;103164.88;4953678;28;20059;-78
2023/04/04 06:23:17;;;;;;;10.88;5.00;;;;;;;1.01;100.00;103162.00;4945421;28;20050;-78
2023/04/04 06:25:48;;;;;;;12.07;4.50;;;;;;;1.12;100.00;103161.16;4935600;28;20054;-78
2023/04/04 06:28:19;;;;;;;10.63;4.25;;;;;;;1.23;100.00;103163.66;4910487;28;20166;-78
2023/04/04 06:30:49;;;;;;;9.90;3.90;;;;;;;1.34;100.00;103160.22;4952201;28;20065;-78
2023/04/04 06:33:25;;;;;;;6.25;3.78;;;;;;;1.46;100.00;103158.59;4942155;28;20051;-78
2023/04/04 06:35:54;;;;;;;6.25;4.28;;;;;;;1.56;100.00;103152.41;4951916;28;20048;-76
2023/04/04 06:38:22;;;;;;;7.50;3.50;;;;;;;1.67;100.00;103145.44;4939235;28;20059;-78
2023/04/04 06:40:52;;;;;;;11.23;3.80;;;;;;;1.83;100.00;103142.28;4944181;28;20051;-78
2023/04/04 06:43:20;;;;;;;8.93;3.67;;;;;;;2.10;100.00;103146.97;4931248;28;20058;-77
2023/04/04 06:45:48;;;;;;;9.88;4.20;;;;;;;2.48;100.00;103141.06;4909970;28;20053;-78
2023/04/04 06:48:19;;;;;;;7.53;3.88;;;;;;;2.97;100.00;103143.72;4966839;28;20078;-79
2023/04/04 06:50:47;;;;;;;5.22;2.70;;;;;;;3.53;100.00;103150.16;4959380;28;20510;-79
2023/04/04 06:53:17;;;;;;;7.50;3.42;;;;;;;4.07;100.00;103150.38;4965887;28;20823;-80
2023/04/04 06:55:44;;;;;;;4.47;2.53;;;;;;;4.54;100.00;103148.16;4984350;28;20074;-77
2023/04/04 06:58:12;;;;;;;5.68;2.67;;;;;;;4.67;100.00;103145.56;4918925;28;20723;-79
2023/04/04 07:00:41;;;;;;;16.47;5.10;;;;;;;4.76;100.00;103142.63;4900323;28;20046;-79
2023/04/04 07:03:09;;;;;;;11.50;4.00;;;;;;;4.85;100.00;103145.81;4943824;28;20298;-79
2023/04/04 07:05:40;;;;;;;3.25;2.10;;;;;;;5.10;100.00;103136.91;4968323;28;20049;-79
2023/04/04 07:08:08;;;;;;;9.40;2.30;;;;;;;5.26;100.00;103140.56;4936393;28;20054;-79
2023/04/04 07:10:35;;;;;;;6.45;2.30;;;;;;;5.40;100.00;103137.91;4969802;28;20061;-79
2023/04/04 07:13:05;;;;;;;8.63;2.90;;;;;;;5.41;100.00;103137.09;4949832;28;20047;-77
2023/04/04 07:15:34;;;;;;;4.78;2.80;;;;;;;5.28;100.00;103131.09;4939663;28;20058;-79
2023/04/04 07:18:01;;;;;;;3.10;2.22;;;;;;;5.17;100.00;103137.38;4911806;28;20047;-79
2023/04/04 07:20:29;;;;;;;7.60;2.90;;;;;;;5.03;100.00;103133.03;4969182;28;20509;-80
2023/04/04 07:22:57;;;;;;;6.30;2.58;;;;;;;5.01;100.00;103132.94;4919124;29;20403;-79
2023/04/04 07:25:24;;;;;;;5.50;3.08;;;;;;;5.14;100.00;103128.44;4928257;28;20521;-79
2023/04/04 07:27:53;;;;;;;8.77;2.90;;;;;;;5.33;100.00;103131.41;4967271;28;20057;-78
2023/04/04 07:30:36;;;;;;;7.35;2.55;;;;;;;5.61;100.00;103125.22;4954970;28;20417;-79
2023/04/04 07:33:03;;;;;;;4.15;2.67;;;;;;;5.92;100.00;103121.81;4912091;28;20059;-78
2023/04/04 07:35:31;;;;;;;7.57;3.08;;;;;;;6.14;100.00;103124.88;4936127;28;20074;-79
2023/04/04 07:37:58;;;;;;;8.23;2.40;;;;;;;6.33;100.00;103124.25;4957707;28;20093;-79
2023/04/04 07:40:26;;;;;;;5.53;2.67;;;;;;;6.48;100.00;103126.81;4964261;28;20054;-78
2023/04/04 07:42:53;;;;;;;2.15;1.95;;;;;;;6.66;100.00;103132.19;4950749;28;20055;-79
2023/04/04 07:45:21;;;;;;;3.20;2.20;;;;;;;6.80;100.00;103125.97;4934040;28;20520;-79
2023/04/04 07:47:49;;;;;;;3.25;2.30;;;;;;;6.94;96.71;103124.13;4944963;28;20425;-79
2023/04/04 07:50:16;;;;;;;6.97;2.33;;;;;;;6.98;94.31;103115.63;4956157;28;20062;-77
2023/04/04 07:52:53;;;;;;;5.53;2.42;;;;;;;6.98;92.34;103115.63;4969592;28;20067;-79
2023/04/04 07:55:23;;;;;;;4.50;1.58;;;;;;;6.96;87.93;103111.13;4953268;28;20047;-79
2023/04/04 07:57:52;;;;;;;2.00;1.50;;;;;;;6.86;84.50;103114.03;4970027;28;20058;-79
2023/04/04 08:00:20;;;;;;;2.80;1.85;;;;;;;6.86;81.38;103108.78;4937071;28;20046;-79
2023/04/04 08:02:53;;;;;;;4.43;1.65;;;;;;;6.85;80.89;103104.38;4984698;28;20055;-79
2023/04/04 08:05:21;;;;;;;2.83;1.70;;;;;;;6.77;80.92;103107.47;4914830;28;20517;-79
2023/04/04 08:07:48;;;;;;;2.78;1.60;;;;;;;6.71;77.22;103114.09;4969752;28;20054;-79
2023/04/04 08:10:16;;;;;;;4.55;1.80;;;;;;;6.53;70.71;103108.75;4950918;28;20062;-79
2023/04/04 08:12:44;;;;;;;3.83;2.10;;;;;;;6.29;71.54;103103.03;4959912;28;20051;-78
2023/04/04 08:15:11;;;;;;;3.28;1.65;;;;;;;6.16;73.17;103106.66;4970767;28;20413;-79
2023/04/04 08:17:39;;;;;;;4.13;2.08;;;;;;;5.97;73.49;103107.28;4972037;28;20066;-78
2023/04/04 08:20:07;;;;;;;5.35;2.05;;;;;;;5.98;73.58;103111.72;4897711;28;20066;-79
2023/04/04 08:22:34;;;;;;;3.55;1.90;;;;;;;5.91;72.71;103113.03;4967071;28;20062;-79
2023/04/04 08:25:03;;;;;;;3.50;1.67;;;;;;;5.87;73.11;103121.53;4953854;28;20066;-77
2023/04/04 08:27:31;;;;;;;4.40;2.00;;;;;;;5.98;74.25;103112.63;4957518;28;20047;-80
2023/04/04 08:29:59;;;;;;;3.70;2.30;;;;;;;6.28;76.65;103114.31;4965521;28;20059;-78
2023/04/04 08:32:28;;;;;;;5.40;2.25;;;;;;;6.48;76.43;103116.31;4941900;28;20061;-79
2023/04/04 08:34:55;;;;;;;4.18;1.90;;;;;;;6.59;71.14;103114.31;4946574;28;20489;-78
2023/04/04 08:37:23;;;;;;;4.60;1.70;;;;;;;6.76;73.33;103116.16;4952595;28;20050;-78
2023/04/04 08:39:50;;;;;;;6.70;2.05;;;;;;;7.03;75.09;103108.91;4952641;28;20055;-79
2023/04/04 08:42:19;;;;;;;3.45;2.22;;;;;;;7.08;71.86;103111.75;4938043;28;20047;-79
2023/04/04 08:44:51;;;;;;;4.55;2.28;;;;;;;7.20;71.50;103119.38;4944485;28;20495;-79
2023/04/04 08:47:20;;;;;;;4.72;2.17;;;;;;;7.30;69.06;103108.56;4956882;28;20055;-79
2023/04/04 08:49:50;;;;;;;8.48;2.78;;;;;;;7.38;70.61;103119.47;4958479;28;20042;-79
2023/04/04 08:52:20;;;;;;;4.32;2.03;;;;;;;7.46;66.23;103107.63;4936773;28;20043;-78
2023/04/04 08:54:50;;;;;;;6.63;2.35;;;;;;;7.54;64.31;103111.59;4965646;28;20057;-79
2023/04/04 08:57:17;;;;;;;2.78;1.70;;;;;;;7.49;61.97;103115.69;4969700;28;20059;-78
2023/04/04 08:59:46;;;;;;;5.50;1.77;;;;;;;7.38;59.74;103119.47;4965975;28;20050;-78
2023/04/04 09:02:22;;;;;;;5.90;1.77;;;;;;;7.45;61.99;103107.56;4949608;28;20051;-79
2023/04/04 09:04:51;;;;;;;3.70;1.88;;;;;;;7.65;59.71;103120.00;4954187;28;20050;-79
2023/04/04 09:07:32;;;;;;;4.45;1.40;;;;;;;7.61;56.86;103111.06;4929960;28;20054;-79
2023/04/04 09:10:02;;;;;;;4.47;1.83;;;;;;;7.42;56.05;103106.56;4966070;28;20043;-79
2023/04/04 09:12:33;;;;;;;7.68;1.55;;;;;;;7.33;56.65;103119.19;4959084;28;20425;-79
2023/04/04 09:15:02;;;;;;;2.55;1.50;;;;;;;7.51;56.82;103105.28;4947288;28;20184;-79
2023/04/04 09:17:29;;;;;;;7.22;2.05;;;;;;;7.56;57.27;103103.75;4967363;28;20057;-78
2023/04/04 09:20:03;;;;;;;3.80;1.60;;;;;;;7.49;54.06;103104.28;4949590;28;20525;-78
2023/04/04 09:22:31;;;;;;;3.55;1.45;;;;;;;7.26;55.41;103109.22;4917058;28;20062;-78
2023/04/04 09:24:58;;;;;;;4.25;1.58;;;;;;;7.34;55.12;103105.28;4976236;28;20055;-79
2023/04/04 09:27:26;;;;;;;2.35;1.83;;;;;;;7.40;53.42;103097.72;4961620;28;20489;-79
2023/04/04 09:29:55;;;;;;;3.75;2.05;;;;;;;7.36;54.42;103098.41;4968843;28;20050;-80
2023/04/04 09:32:23;;;;;;;3.20;1.90;;;;;;;7.22;52.60;103104.63;4969395;28;20524;-78
2023/04/04 09:34:51;;;;;;;4.38;1.85;;;;;;;7.05;53.49;103097.59;4959197;28;20496;-80
2023/04/04 09:37:19;;;;;;;4.57;1.90;;;;;;;7.05;54.06;103102.81;4913763;28;20046;-80
2023/04/04 09:39:47;;;;;;;3.47;1.73;;;;;;;7.01;54.64;103096.50;4986030;28;20046;-80
2023/04/04 09:42:15;;;;;;;2.17;1.70;;;;;;;7.03;54.48;103097.50;4969340;28;20050;-79
2023/04/04 09:44:43;;;;;;;3.50;1.70;;;;;;;7.00;54.75;103097.34;4960594;28;20407;-79
2023/04/04 09:47:27;;;;;;;3.22;1.50;;;;;;;7.02;54.57;103090.47;4965607;28;20497;-79
2023/04/04 09:50:00;;;;;;;4.43;2.00;;;;;;;7.07;54.59;103088.06;4965977;28;20049;-80
2023/04/04 09:52:32;;;;;;;2.92;2.53;;;;;;;7.18;54.84;103100.03;4930731;28;20051;-79
2023/04/04 09:55:03;;;;;;;2.40;1.77;;;;;;;7.24;55.13;103089.91;4939228;28;20871;-80
2023/04/04 09:57:33;;;;;;;4.88;2.20;;;;;;;7.16;54.48;103084.22;4967928;28;20050;-79
2023/04/04 10:00:05;;;;;;;1.67;1.52;;;;;;;7.07;54.77;103089.00;4966404;28;20058;-79
2023/04/04 10:02:37;;;;;;;3.78;2.08;;;;;;;7.00;55.87;103084.25;4938019;28;20051;-79
2023/04/04 10:05:09;;;;;;;4.43;1.83;;;;;;;7.07;55.43;103088.06;4965778;28;20047;-79
2023/04/04 10:07:41;;;;;;;3.78;2.05;;;;;;;7.09;55.38;103087.38;4920406;28;20050;-79
2023/04/04 10:10:09;;;;;;;5.13;1.90;;;;;;;7.03;55.81;103087.00;4956462;28;20946;-79
2023/04/04 10:12:37;;;;;;;2.78;2.17;;;;;;;7.15;57.28;103089.41;4953530;28;20059;-79
2023/04/04 10:15:06;;;;;;;3.13;2.28;;;;;;;7.35;58.54;103096.59;4959863;28;20043;-79
2023/04/04 10:17:38;;;;;;;5.75;2.25;;;;;;;7.36;55.92;103087.91;4954989;28;20066;-79
2023/04/04 10:20:10;;;;;;;2.55;1.90;;;;;;;7.44;57.18;103082.16;4945300;28;20296;-79
2023/04/04 10:22:38;;;;;;;3.30;1.95;;;;;;;7.51;55.66;103090.44;4962000;28;20055;-78
2023/04/04 10:25:06;;;;;;;3.47;2.17;;;;;;;7.50;55.46;103079.84;4918979;28;20078;-79
2023/04/04 10:27:37;;;;;;;3.30;2.30;;;;;;;7.56;56.72;103073.19;4959995;28;20081;-79
2023/04/04 10:30:06;;;;;;;2.65;2.10;;;;;;;7.58;56.07;103078.50;4975722;28;20047;-80
2023/04/04 10:32:53;;;;;;;4.65;2.70;;;;;;;7.47;54.71;103074.47;4934249;28;20058;-80
2023/04/04 10:35:23;;;;;;;3.97;2.40;;;;;;;7.51;56.06;103077.31;4949367;28;20054;-78
2023/04/04 10:37:57;;;;;;;2.80;2.10;;;;;;;7.60;55.03;103076.88;4926264;28;20059;-79
2023/04/04 10:40:32;;;;;;;2.75;2.03;;;;;;;7.66;56.79;103071.06;4942473;28;20047;-78
2023/04/04 10:43:05;;;;;;;3.75;2.22;;;;;;;7.86;56.75;103057.19;4940919;28;20061;-80
2023/04/04 10:45:37;;;;;;;2.97;2.13;;;;;;;8.03;56.95;103062.38;4964678;28;20560;-80
2023/04/04 10:48:05;;;;;;;5.78;2.40;;;;;;;8.10;56.89;103047.00;4933559;28;20055;-78
2023/04/04 10:50:38;;;;;;;3.85;2.22;;;;;;;8.08;55.29;103053.88;4950068;28;20054;-79
2023/04/04 10:53:06;;;;;;;4.32;2.33;;;;;;;8.10;55.80;103047.00;4972005;28;20062;-78
2023/04/04 10:55:35;;;;;;;5.82;2.08;;;;;;;8.13;56.40;103052.41;4912789;28;20584;-80
2023/04/04 10:58:05;;;;;;;3.30;2.30;;;;;;;8.14;55.84;103046.31;4938122;28;20605;-80
2023/04/04 11:00:47;;;;;;;4.03;2.05;;;;;;;8.19;56.50;103055.31;4948453;28;20391;-81
2023/04/04 11:03:16;;;;;;;4.18;2.50;;;;;;;8.20;55.96;103033.50;4960848;28;20058;-80
2023/04/04 11:05:46;;;;;;;3.25;2.42;;;;;;;8.23;56.03;103040.59;4950978;28;20043;-80
2023/04/04 11:08:18;;;;;;;4.35;3.45;;;;;;;8.30;57.52;103037.44;4945630;28;20494;-79
2023/04/04 11:10:51;;;;;;;4.90;3.67;;;;;;;8.49;58.17;103043.63;4930564;28;20073;-78
2023/04/04 11:13:36;;;;;;;4.50;2.22;;;;;;;8.52;54.36;103026.22;4936803;28;20051;-79
2023/04/04 11:16:06;;;;;;;4.75;2.67;;;;;;;8.41;56.24;103027.44;4962218;28;20547;-79
2023/04/04 11:18:40;;;;;;;5.38;2.35;;;;;;;8.45;56.39;103024.19;4971997;28;20062;-79
2023/04/04 11:21:13;;;;;;;5.00;3.05;;;;;;;8.41;53.59;103024.78;4967990;28;20054;-79
2023/04/04 11:23:47;;;;;;;4.15;2.85;;;;;;;8.31;54.33;103027.84;4967041;28;20059;-79
2023/04/04 11:26:34;;;;;;;3.70;2.67;;;;;;;8.14;52.79;103027.91;4925908;28;20051;-79
2023/04/04 11:29:03;;;;;;;5.47;2.85;;;;;;;8.13;55.62;103027.88;4964904;28;20508;-79
2023/04/04 11:31:50;;;;;;;6.90;3.13;;;;;;;8.18;55.55;103016.75;4961794;28;20058;-79
2023/04/04 11:34:31;;;;;;;6.95;3.35;;;;;;;8.29;56.39;103014.63;4964109;28;20050;-79
2023/04/04 11:37:15;;;;;;;6.00;2.90;;;;;;;8.44;56.87;103017.09;4966285;28;20083;-79
2023/04/04 11:39:55;;;;;;;3.70;2.88;;;;;;;8.64;56.35;103017.13;4941569;28;20386;-79
2023/04/04 11:42:32;;;;;;;5.45;2.55;;;;;;;8.79;53.83;103012.59;4976116;28;20054;-79